Time;durP1;ratioP1;P1;durP2;ratioP2;P2;SDS_P1;SDS_P2;PMS_P1;PMS_P2;Temp;Humidity;BMP_temperature;BMP_pressure;BME280_temperature;BME280_humidity;BME280_pressure;Samples;Min_cycle;Max_cycle;Signal;HPM_P1;HPM_P2
2022/04/26 03:37:47;0.00;0.00;0.62;0.00;0.00;0.62;8.70;7.80;;;24.80;22.10;;;;;;2259549;61;20361;-62
2022/04/26 03:40:33;0.00;0.00;0.62;0.00;0.00;0.62;8.30;7.50;;;24.90;22.20;;;;;;2259842;61;20361;-62
2022/04/26 03:43:18;0.00;0.00;0.62;0.00;0.00;0.62;7.90;7.27;;;24.80;22.10;;;;;;2259394;61;20392;-62
2022/04/26 03:46:02;0.00;0.00;0.62;0.00;0.00;0.62;7.97;7.30;;;24.80;22.10;;;;;;2259907;61;20388;-62
2022/04/26 03:48:47;0.00;0.00;0.62;0.00;0.00;0.62;8.83;7.60;;;24.80;22.10;;;;;;2259521;61;20468;-62
2022/04/26 03:51:32;0.00;0.00;0.62;0.00;0.00;0.62;10.97;7.80;;;24.70;22.00;;;;;;2258898;61;20368;-61
2022/04/26 03:54:16;0.00;0.00;0.62;0.00;0.00;0.62;7.87;7.17;;;24.70;22.00;;;;;;2260142;61;20369;-62
2022/04/26 03:57:03;0.00;0.00;0.62;0.00;0.00;0.62;8.40;7.70;;;24.70;22.00;;;;;;2259782;61;20383;-62
2022/04/26 03:59:47;0.00;0.00;0.62;0.00;0.00;0.62;8.70;7.83;;;24.70;22.00;;;;;;2258935;61;20384;-58
2022/04/26 04:02:32;0.00;0.00;0.62;0.00;0.00;0.62;8.20;7.50;;;24.70;22.00;;;;;;2259906;61;20384;-62
2022/04/26 04:05:17;0.00;0.00;0.62;0.00;0.00;0.62;6.90;6.30;;;24.60;22.00;;;;;;2259422;61;20822;-62
2022/04/26 04:08:02;0.00;0.00;0.62;0.00;0.00;0.62;9.23;8.33;;;24.60;22.00;;;;;;2259655;61;20866;-59
2022/04/26 04:10:47;0.00;0.00;0.62;0.00;0.00;0.62;12.20;7.80;;;24.60;22.00;;;;;;2496366;53;20445;-62
2022/04/26 04:13:32;0.00;0.00;0.62;0.00;0.00;0.62;8.00;7.30;;;24.60;22.00;;;;;;2259708;61;20400;-63
2022/04/26 04:16:17;0.00;0.00;0.62;0.00;0.00;0.62;7.43;6.83;;;24.60;22.00;;;;;;2260763;61;20392;-62
2022/04/26 04:19:20;0.00;0.00;0.62;0.00;0.00;0.62;7.73;7.10;;;24.60;22.00;;;;;;2260229;61;20376;-62
2022/04/26 04:22:07;0.00;0.00;0.62;0.00;0.00;0.62;7.47;6.87;;;24.60;22.00;;;;;;2259865;61;20422;-62
2022/04/26 04:24:52;0.00;0.00;0.62;0.00;0.00;0.62;8.03;7.33;;;24.50;21.90;;;;;;2260003;61;20456;-62
2022/04/26 04:27:37;0.00;0.00;0.62;0.00;0.00;0.62;8.80;8.00;;;24.50;21.90;;;;;;2260270;61;20893;-63
2022/04/26 04:30:23;0.00;0.00;0.62;0.00;0.00;0.62;7.90;7.30;;;24.50;21.90;;;;;;2260489;61;20416;-63
2022/04/26 04:33:08;0.00;0.00;0.62;0.00;0.00;0.62;8.80;8.00;;;24.50;21.90;;;;;;2260454;61;20416;-65
2022/04/26 04:35:53;0.00;0.00;0.62;0.00;0.00;0.62;8.07;7.43;;;24.50;21.90;;;;;;2256504;61;20527;-61
2022/04/26 04:38:38;0.00;0.00;0.62;0.00;0.00;0.62;7.70;7.10;;;24.50;21.90;;;;;;2260402;61;20341;-63
2022/04/26 04:41:23;0.00;0.00;0.62;0.00;0.00;0.62;8.20;7.50;;;24.40;21.80;;;;;;2260483;61;20750;-65
2022/04/26 04:44:08;0.00;0.00;0.62;0.00;0.00;0.62;8.47;7.60;;;24.40;21.90;;;;;;2259892;61;20916;-61
2022/04/26 04:47:00;0.00;0.00;0.62;0.00;0.00;0.62;8.37;7.60;;;24.40;21.80;;;;;;2260174;61;20399;-63
2022/04/26 04:49:44;0.00;0.00;0.62;0.00;0.00;0.62;9.50;8.60;;;24.40;21.80;;;;;;2259737;61;20842;-63
2022/04/26 04:52:29;0.00;0.00;0.62;0.00;0.00;0.62;9.10;8.20;;;24.30;21.80;;;;;;2260186;61;20383;-63
2022/04/26 04:55:13;0.00;0.00;0.62;0.00;0.00;0.62;8.00;7.20;;;24.30;21.80;;;;;;2260396;61;20408;-62
2022/04/26 04:57:59;0.00;0.00;0.62;0.00;0.00;0.62;8.70;7.60;;;24.30;21.80;;;;;;2259143;61;20844;-62
2022/04/26 05:00:44;0.00;0.00;0.62;0.00;0.00;0.62;7.90;7.20;;;24.30;21.90;;;;;;2260345;61;20400;-60
2022/04/26 05:03:30;0.00;0.00;0.62;0.00;0.00;0.62;8.20;7.40;;;24.30;21.90;;;;;;2260315;61;20401;-62
2022/04/26 05:06:15;0.00;0.00;0.62;0.00;0.00;0.62;9.10;8.17;;;24.30;21.90;;;;;;2259748;61;20389;-62
2022/04/26 05:09:00;0.00;0.00;0.62;0.00;0.00;0.62;9.20;8.30;;;24.30;21.90;;;;;;2260138;61;20365;-67
2022/04/26 05:11:45;0.00;0.00;0.62;0.00;0.00;0.62;9.03;8.13;;;24.30;22.00;;;;;;2259974;61;20361;-62
2022/04/26 05:14:29;0.00;0.00;0.62;0.00;0.00;0.62;8.73;7.83;;;24.20;21.90;;;;;;2260151;61;20411;-62
2022/04/26 05:17:14;0.00;0.00;0.62;0.00;0.00;0.62;8.50;7.60;;;24.20;21.90;;;;;;2260440;61;20818;-63
2022/04/26 05:20:00;0.00;0.00;0.62;0.00;0.00;0.62;9.50;7.30;;;24.20;22.00;;;;;;2258900;61;20415;-62
2022/04/26 05:25:48;0.00;0.00;0.62;0.00;0.00;0.62;9.40;8.50;;;24.20;22.00;;;;;;2260412;61;20484;-60
2022/04/26 05:28:33;0.00;0.00;0.62;0.00;0.00;0.62;8.33;7.53;;;24.20;22.00;;;;;;2259261;61;20485;-61
2022/04/26 05:31:18;0.00;0.00;0.62;0.00;0.00;0.62;10.23;9.07;;;24.20;22.00;;;;;;2260245;61;20368;-63
2022/04/26 05:34:02;0.00;0.00;0.62;0.00;0.00;0.62;9.60;8.53;;;24.20;22.00;;;;;;2259727;61;20376;-64
2022/04/26 05:36:48;0.00;0.00;0.62;0.00;0.00;0.62;9.67;8.70;;;24.10;21.90;;;;;;2260084;61;20773;-63
2022/04/26 05:39:32;0.00;0.00;0.62;0.00;0.00;0.62;9.40;7.90;;;24.10;21.90;;;;;;2259658;61;20364;-64
2022/04/26 05:42:17;0.00;0.00;0.62;0.00;0.00;0.62;9.40;8.00;;;24.10;21.90;;;;;;2259166;61;20412;-64
2022/04/26 05:45:02;0.00;0.00;0.62;0.00;0.00;0.62;9.63;8.73;;;24.10;22.00;;;;;;2259968;61;20475;-64
2022/04/26 05:47:47;0.00;0.00;0.62;0.00;0.00;0.62;12.23;8.80;;;24.10;22.00;;;;;;2260000;61;20361;-64
2022/04/26 05:50:31;0.00;0.00;0.62;0.00;0.00;0.62;10.67;8.20;;;24.10;22.00;;;;;;2259486;61;20820;-63
2022/04/26 05:53:17;0.00;0.00;0.62;0.00;0.00;0.62;9.33;8.40;;;24.10;22.10;;;;;;2260036;61;20387;-65
2022/04/26 05:56:04;0.00;0.00;0.62;0.00;0.00;0.62;8.30;7.50;;;24.10;22.00;;;;;;2259791;61;20810;-67
2022/04/26 05:58:49;0.00;0.00;0.62;0.00;0.00;0.62;8.80;8.00;;;24.10;22.10;;;;;;2259662;61;20622;-64
2022/04/26 06:01:35;0.00;0.00;0.62;0.00;0.00;0.62;9.43;8.57;;;24.10;22.10;;;;;;2260267;61;20484;-63
2022/04/26 06:04:19;0.00;0.00;0.62;0.00;0.00;0.62;8.07;7.20;;;24.10;22.20;;;;;;2259369;61;20385;-63
2022/04/26 06:07:04;0.00;0.00;0.62;0.00;0.00;0.62;10.07;8.90;;;24.10;22.20;;;;;;2260259;61;20468;-64
2022/04/26 06:09:53;0.00;0.00;0.62;0.00;0.00;0.62;8.50;7.80;;;24.00;22.10;;;;;;2259940;61;20511;-64
2022/04/26 06:12:41;0.00;0.00;0.62;0.00;0.00;0.62;8.47;7.67;;;24.10;22.20;;;;;;2259234;61;20533;-64
2022/04/26 06:15:26;0.00;0.00;0.62;0.00;0.00;0.62;8.50;7.53;;;24.00;22.20;;;;;;2260204;61;20460;-64
2022/04/26 06:18:10;0.00;0.00;0.62;0.00;0.00;0.62;8.50;7.60;;;24.00;22.20;;;;;;2259309;61;20370;-62
2022/04/26 06:20:55;0.00;0.00;0.62;0.00;0.00;0.62;9.07;6.63;;;24.00;22.20;;;;;;2259754;61;20881;-65
2022/04/26 06:23:39;0.00;0.00;0.62;0.00;0.00;0.62;9.20;7.97;;;24.00;22.20;;;;;;2259587;61;20381;-61
2022/04/26 06:26:25;0.00;0.00;0.62;0.00;0.00;0.62;8.50;7.70;;;24.00;22.30;;;;;;2259319;61;20675;-66
2022/04/26 06:29:10;0.00;0.00;0.62;0.00;0.00;0.62;9.07;8.27;;;24.00;22.30;;;;;;2720824;45;20461;-64
2022/04/26 06:31:55;0.00;0.00;0.62;0.00;0.00;0.62;8.97;8.07;;;24.00;22.30;;;;;;2255772;61;20451;-61
2022/04/26 06:34:39;0.00;0.00;0.62;0.00;0.00;0.62;9.13;8.17;;;24.00;22.30;;;;;;2256678;61;20439;-63
2022/04/26 06:37:24;0.00;0.00;0.62;0.00;0.00;0.62;8.80;7.73;;;24.00;22.30;;;;;;2259658;61;20368;-67
2022/04/26 06:40:09;0.00;0.00;0.62;0.00;0.00;0.62;13.43;9.70;;;24.00;22.40;;;;;;2259909;61;20408;-61
2022/04/26 06:42:55;0.00;0.00;0.62;0.00;0.00;0.62;11.60;9.40;;;24.00;22.40;;;;;;2259385;61;20381;-66
2022/04/26 06:45:40;0.00;0.00;0.62;0.00;0.00;0.62;8.90;8.10;;;24.00;22.40;;;;;;2259899;61;20396;-67
2022/04/26 06:48:25;0.00;0.00;0.62;0.00;0.00;0.62;10.23;9.10;;;24.00;22.50;;;;;;2259048;61;20873;-67
2022/04/26 06:51:10;0.00;0.00;0.62;0.00;0.00;0.62;9.27;8.27;;;24.00;22.50;;;;;;2260093;61;20364;-66
2022/04/26 06:53:54;0.00;0.00;0.62;0.00;0.00;0.62;10.20;9.20;;;24.00;22.50;;;;;;2259970;61;20457;-66
2022/04/26 06:56:45;0.00;0.00;0.62;0.00;0.00;0.62;9.90;8.80;;;24.00;22.60;;;;;;2259615;61;20365;-65
2022/04/26 06:59:31;0.00;0.00;0.62;0.00;0.00;0.62;9.63;8.70;;;24.00;22.70;;;;;;2259757;61;20411;-67
2022/04/26 07:02:16;0.00;0.00;0.62;0.00;0.00;0.62;10.93;9.83;;;24.00;22.70;;;;;;2260107;61;20835;-69
2022/04/26 07:05:00;0.00;0.00;0.62;0.00;0.00;0.62;9.93;9.00;;;24.00;22.70;;;;;;2259756;61;20431;-59
2022/04/26 07:07:46;0.00;0.00;0.62;0.00;0.00;0.62;10.17;8.57;;;24.00;22.70;;;;;;2260075;61;20477;-60
2022/04/26 07:10:31;0.00;0.00;0.62;0.00;0.00;0.62;10.53;9.43;;;24.00;22.70;;;;;;2259189;61;20369;-64
2022/04/26 07:13:18;0.00;0.00;0.62;0.00;0.00;0.62;10.53;9.47;;;24.00;22.70;;;;;;2260064;61;20841;-67
2022/04/26 07:16:05;0.00;0.00;0.62;0.00;0.00;0.62;9.30;8.40;;;24.00;22.70;;;;;;2260218;61;20372;-65
2022/04/26 07:18:50;0.00;0.00;0.62;0.00;0.00;0.62;10.50;9.20;;;24.00;22.70;;;;;;2258847;61;20452;-64
2022/04/26 07:21:36;0.00;0.00;0.62;0.00;0.00;0.62;11.80;10.43;;;24.00;22.80;;;;;;2260016;61;20365;-66
2022/04/26 07:24:20;0.00;0.00;0.62;0.00;0.00;0.62;9.47;8.57;;;24.10;22.80;;;;;;2260012;61;20373;-65
2022/04/26 07:27:05;0.00;0.00;0.62;0.00;0.00;0.62;10.67;9.67;;;24.10;22.80;;;;;;2259583;61;20480;-63
2022/04/26 07:29:51;0.00;0.00;0.62;0.00;0.00;0.62;10.70;9.40;;;24.00;22.80;;;;;;2260001;61;20827;-64
2022/04/26 07:35:40;0.00;0.00;0.62;0.00;0.00;0.62;10.27;9.13;;;24.10;22.90;;;;;;2260103;61;20419;-66
2022/04/26 07:38:24;0.00;0.00;0.62;0.00;0.00;0.62;9.50;8.60;;;24.10;22.90;;;;;;2259603;61;20361;-67
2022/04/26 07:41:11;0.00;0.00;0.62;0.00;0.00;0.62;10.53;9.03;;;24.10;22.90;;;;;;2259228;61;20881;-66
2022/04/26 07:43:56;0.00;0.00;0.62;0.00;0.00;0.62;9.60;8.70;;;24.10;23.00;;;;;;2259847;61;20412;-66
2022/04/26 07:46:42;0.00;0.00;0.62;0.00;0.00;0.62;10.20;8.83;;;24.10;23.00;;;;;;2260544;61;20353;-68
2022/04/26 07:49:30;0.00;0.00;0.62;0.00;0.00;0.62;9.67;8.20;;;24.10;23.00;;;;;;2259733;61;20943;-67
2022/04/26 07:52:16;0.00;0.00;0.62;0.00;0.00;0.62;10.47;8.83;;;24.20;23.00;;;;;;2260469;61;20432;-67
2022/04/26 07:55:00;0.00;0.00;0.62;0.00;0.00;0.62;13.03;9.13;;;24.20;23.00;;;;;;2259746;61;21072;-68
2022/04/26 07:57:45;0.00;0.00;0.62;0.00;0.00;0.62;10.57;9.00;;;24.20;23.00;;;;;;2260587;61;20376;-67
2022/04/26 08:00:30;0.00;0.00;0.62;0.00;0.00;0.62;10.00;8.73;;;24.20;23.10;;;;;;2260937;61;20584;-66
2022/04/26 08:03:16;0.00;0.00;0.62;0.00;0.00;0.62;9.07;8.27;;;24.20;23.10;;;;;;2259781;61;20435;-57
2022/04/26 08:06:03;0.00;0.00;0.62;0.00;0.00;0.62;9.53;8.63;;;24.20;23.10;;;;;;2260650;61;20385;-57
2022/04/26 08:08:47;0.00;0.00;0.62;0.00;0.00;0.62;9.47;8.50;;;24.20;23.00;;;;;;2260239;61;20500;-65
2022/04/26 08:11:31;0.00;0.00;0.62;0.00;0.00;0.62;9.47;8.17;;;24.30;23.10;;;;;;2260234;61;20392;-64
2022/04/26 08:14:16;0.00;0.00;0.62;0.00;0.00;0.62;9.20;8.30;;;24.30;23.00;;;;;;2260840;61;20365;-65
2022/04/26 08:17:01;0.00;0.00;0.62;0.00;0.00;0.62;7.87;7.07;;;24.30;23.00;;;;;;2259317;61;20364;-65
2022/04/26 08:19:45;0.00;0.00;0.62;0.00;0.00;0.62;8.57;7.77;;;24.30;23.10;;;;;;2259997;61;20451;-56
2022/04/26 08:22:31;0.00;0.00;0.62;0.00;0.00;0.62;7.80;7.10;;;24.30;23.00;;;;;;2260118;61;20377;-58
2022/04/26 08:28:20;0.00;0.00;0.62;0.00;0.00;0.62;7.93;7.13;;;24.40;23.10;;;;;;2260243;61;20372;-57
2022/04/26 08:31:05;0.00;0.00;0.62;0.00;0.00;0.62;7.00;6.40;;;24.30;23.00;;;;;;2260459;61;20373;-66
2022/04/26 08:33:50;0.00;0.00;0.62;0.00;0.00;0.62;8.33;7.50;;;24.40;23.00;;;;;;2259817;61;20451;-65
2022/04/26 08:36:35;0.00;0.00;0.62;0.00;0.00;0.62;7.10;6.47;;;24.40;23.00;;;;;;2260758;61;20361;-65
2022/04/26 08:39:23;0.00;0.00;0.62;0.00;0.00;0.62;6.70;6.00;;;24.50;23.20;;;;;;2259147;61;20365;-66
2022/04/26 08:42:08;0.00;0.00;0.62;0.00;0.00;0.62;7.30;6.50;;;24.50;23.20;;;;;;2260582;61;20443;-63
2022/04/26 08:44:52;0.00;0.00;0.62;0.00;0.00;0.62;7.17;6.50;;;24.50;23.10;;;;;;2260537;61;20793;-65
2022/04/26 08:51:05;0.00;0.00;0.62;0.00;0.00;0.62;7.43;6.67;;;24.50;23.10;;;;;;2250728;61;20422;-60
2022/04/26 08:53:49;0.00;0.00;0.62;0.00;0.00;0.62;6.07;5.47;;;24.50;23.10;;;;;;2260087;61;20478;-64
2022/04/26 08:56:35;0.00;0.00;0.62;0.00;0.00;0.62;6.37;5.77;;;24.50;23.10;;;;;;2260253;61;20360;-66
2022/04/26 08:59:20;0.00;0.00;0.62;0.00;0.00;0.62;6.17;5.60;;;24.60;23.20;;;;;;2259858;61;20369;-66
2022/04/26 09:02:18;0.00;0.00;0.62;0.00;0.00;0.62;7.70;6.00;;;24.60;23.20;;;;;;2259423;61;20929;-65
2022/04/26 09:05:10;0.00;0.00;0.62;0.00;0.00;0.62;6.33;5.70;;;24.60;23.30;;;;;;2259682;61;20913;-68
2022/04/26 09:07:54;0.00;0.00;0.62;0.00;0.00;0.62;6.10;4.83;;;24.60;23.20;;;;;;2260178;61;20365;-71
2022/04/26 09:10:46;0.00;0.00;0.62;0.00;0.00;0.62;6.90;6.20;;;24.70;23.30;;;;;;2259345;61;20373;-68
2022/04/26 09:13:40;0.00;0.00;0.62;0.00;0.00;0.62;5.57;4.97;;;24.70;23.30;;;;;;2260522;61;20385;-66
2022/04/26 09:16:25;0.00;0.00;0.62;0.00;0.00;0.62;5.10;4.63;;;24.70;23.30;;;;;;2259352;61;20453;-66
2022/04/26 09:19:10;0.00;0.00;0.62;0.00;0.00;0.62;5.17;4.57;;;24.70;23.20;;;;;;2260216;61;20912;-58
2022/04/26 09:21:56;0.00;0.00;0.62;0.00;0.00;0.62;4.70;4.20;;;24.80;23.30;;;;;;2260237;61;20893;-58
2022/04/26 09:24:55;0.00;0.00;0.62;0.00;0.00;0.62;6.00;5.37;;;24.80;23.30;;;;;;2259398;61;20372;-57
2022/04/26 09:27:42;0.00;0.00;0.62;0.00;0.00;0.62;5.20;4.70;;;24.80;23.30;;;;;;2260516;61;20380;-62
2022/04/26 09:30:29;0.00;0.00;0.62;0.00;0.00;0.62;5.40;5.00;;;24.80;23.30;;;;;;2260321;61;20908;-66
2022/04/26 09:33:40;0.00;0.00;0.62;0.00;0.00;0.62;6.07;4.60;;;24.90;23.30;;;;;;2259929;61;20438;-67
2022/04/26 09:36:29;0.00;0.00;0.62;0.00;0.00;0.62;5.40;4.90;;;24.90;23.30;;;;;;2260336;61;20787;-66
2022/04/26 09:39:18;0.00;0.00;0.62;0.00;0.00;0.62;5.07;4.67;;;24.90;23.30;;;;;;2259802;61;20365;-64
2022/04/26 09:42:04;0.00;0.00;0.62;0.00;0.00;0.62;5.40;4.90;;;24.90;23.30;;;;;;2260501;61;20381;-66
2022/04/26 09:45:03;0.00;0.00;0.62;0.00;0.00;0.62;5.30;4.80;;;25.00;23.30;;;;;;2260193;61;20380;-67
2022/04/26 09:47:53;0.00;0.00;0.62;0.00;0.00;0.62;4.83;4.43;;;25.00;23.30;;;;;;2260082;61;20393;-64
2022/04/26 09:50:38;0.00;0.00;0.62;0.00;0.00;0.62;4.93;4.43;;;25.00;23.30;;;;;;2260655;61;20429;-67
2022/04/26 09:53:23;0.00;0.00;0.62;0.00;0.00;0.62;6.23;4.20;;;25.00;23.30;;;;;;2259432;61;20388;-58
2022/04/26 09:56:09;0.00;0.00;0.62;0.00;0.00;0.62;4.13;3.73;;;25.10;23.30;;;;;;2259820;61;20865;-66
2022/04/26 09:58:57;0.00;0.00;0.62;0.00;0.00;0.62;4.57;4.17;;;25.10;23.30;;;;;;2260063;61;20442;-65
2022/04/26 10:01:45;0.00;0.00;0.62;0.00;0.00;0.62;5.43;4.93;;;25.10;23.30;;;;;;2256186;61;20373;-67
2022/04/26 10:04:33;0.00;0.00;0.62;0.00;0.00;0.62;4.50;4.10;;;25.10;23.30;;;;;;2260238;61;20792;-60
2022/04/26 10:07:21;0.00;0.00;0.62;0.00;0.00;0.62;5.10;4.60;;;25.10;23.30;;;;;;2260265;61;20833;-65
2022/04/26 10:10:07;0.00;0.00;0.62;0.00;0.00;0.62;4.37;3.97;;;25.10;23.30;;;;;;2259379;61;20419;-61
2022/04/26 10:15:55;0.00;0.00;0.62;0.00;0.00;0.62;4.80;4.27;;;25.20;23.30;;;;;;2258859;61;20356;-59
2022/04/26 10:18:43;0.00;0.00;0.62;0.00;0.00;0.62;4.53;3.87;;;25.20;23.30;;;;;;2259901;61;20372;-68
2022/04/26 10:21:47;0.00;0.00;0.62;0.00;0.00;0.62;4.60;4.20;;;25.20;23.30;;;;;;2260453;61;20415;-64
2022/04/26 10:24:33;0.00;0.00;0.62;0.00;0.00;0.62;4.03;3.53;;;25.30;23.30;;;;;;2260047;61;20391;-65
2022/04/26 10:27:20;0.00;0.00;0.62;0.00;0.00;0.62;4.10;3.70;;;25.30;23.30;;;;;;2259779;61;20848;-66
2022/04/26 10:30:06;0.00;0.00;0.62;0.00;0.00;0.62;3.70;3.40;;;25.30;23.20;;;;;;2259525;61;20786;-65
2022/04/26 10:32:50;0.00;0.00;0.62;0.00;0.00;0.62;3.30;3.00;;;25.30;23.20;;;;;;2259497;61;20428;-65
2022/04/26 10:35:36;0.00;0.00;0.62;0.00;0.00;0.62;4.40;3.80;;;25.30;23.20;;;;;;2260165;61;20377;-67
2022/04/26 10:38:23;0.00;0.00;0.62;0.00;0.00;0.62;3.50;3.20;;;25.40;23.30;;;;;;2259128;61;20421;-59
2022/04/26 10:41:08;0.00;0.00;0.62;0.00;0.00;0.62;4.00;3.70;;;25.40;23.30;;;;;;2260181;61;20361;-59
2022/04/26 10:44:36;0.00;0.00;0.62;0.00;0.00;0.62;4.97;3.60;;;25.40;23.30;;;;;;2259874;61;20376;-60
2022/04/26 10:47:24;0.00;0.00;0.62;0.00;0.00;0.62;3.60;3.30;;;25.40;23.70;;;;;;2259575;61;20360;-63
2022/04/26 10:50:12;0.00;0.00;0.62;0.00;0.00;0.62;3.60;3.20;;;25.40;23.20;;;;;;2259400;61;20924;-65
2022/04/26 10:52:56;0.00;0.00;0.62;0.00;0.00;0.62;4.57;3.53;;;25.40;23.20;;;;;;2259264;61;20388;-56
2022/04/26 10:55:42;0.00;0.00;0.62;0.00;0.00;0.62;4.00;3.60;;;25.40;23.20;;;;;;2259813;61;20365;-68
2022/04/26 10:58:27;0.00;0.00;0.62;0.00;0.00;0.62;3.63;3.33;;;25.50;23.20;;;;;;2256264;61;20369;-65
2022/04/26 11:01:11;0.00;0.00;0.62;0.00;0.00;0.62;3.67;3.20;;;25.50;23.20;;;;;;2258941;61;20360;-61
2022/04/26 11:03:58;0.00;0.00;0.62;0.00;0.00;0.62;3.17;2.87;;;25.50;23.20;;;;;;2259875;61;20725;-61
2022/04/26 11:06:42;0.00;0.00;0.62;0.00;0.00;0.62;3.60;3.30;;;25.50;23.20;;;;;;2259655;61;20821;-62
2022/04/26 11:09:30;0.00;0.00;0.62;0.00;0.00;0.62;2.93;2.63;;;25.50;23.20;;;;;;2259313;61;20361;-62
2022/04/26 11:12:17;0.00;0.00;0.62;0.00;0.00;0.62;2.90;2.60;;;25.50;23.10;;;;;;2259392;61;20431;-62
2022/04/26 11:15:06;0.00;0.00;0.62;0.00;0.00;0.62;3.77;3.37;;;25.60;23.20;;;;;;2259216;61;20365;-59
2022/04/26 11:17:52;0.00;0.00;0.62;0.00;0.00;0.62;3.83;2.90;;;25.60;23.20;;;;;;2259600;61;20411;-65
2022/04/26 11:20:38;0.00;0.00;0.62;0.00;0.00;0.62;3.73;3.43;;;25.60;23.10;;;;;;2259843;61;20437;-61
2022/04/26 11:29:52;0.00;0.00;0.62;0.00;0.00;0.62;3.07;2.77;;;25.60;23.00;;;;;;2258710;61;20365;-58
2022/04/26 11:32:42;0.00;0.00;0.62;0.00;0.00;0.62;3.13;2.67;;;25.60;23.00;;;;;;2259187;61;20384;-61
2022/04/26 11:35:29;0.00;0.00;0.62;0.00;0.00;0.62;3.30;3.00;;;25.60;23.00;;;;;;2259680;61;20373;-62
2022/04/26 11:38:16;0.00;0.00;0.62;0.00;0.00;0.62;2.83;2.53;;;25.60;23.00;;;;;;2258851;61;20365;-61
2022/04/26 11:41:02;0.00;0.00;0.62;0.00;0.00;0.62;3.00;2.70;;;25.60;23.00;;;;;;2259533;61;20365;-61
2022/04/26 11:43:47;0.00;0.00;0.62;0.00;0.00;0.62;3.83;2.47;;;25.60;23.00;;;;;;2259458;61;20512;-60
2022/04/26 11:46:33;0.00;0.00;0.62;0.00;0.00;0.62;2.50;2.23;;;25.60;23.00;;;;;;2259335;61;20384;-62
2022/04/26 11:49:17;0.00;0.00;0.62;0.00;0.00;0.62;2.37;2.17;;;25.70;23.00;;;;;;2259580;61;20811;-60
2022/04/26 11:52:03;0.00;0.00;0.62;0.00;0.00;0.62;2.93;2.73;;;25.70;23.00;;;;;;2258888;61;20854;-59
2022/04/26 11:54:48;0.00;0.00;0.62;0.00;0.00;0.62;2.40;2.00;;;25.70;23.00;;;;;;2259861;61;20403;-62
2022/04/26 11:57:33;0.00;0.00;0.62;0.00;0.00;0.62;2.97;2.40;;;25.70;23.00;;;;;;2259224;61;20364;-68
2022/04/26 12:00:20;0.00;0.00;0.62;0.00;0.00;0.62;2.13;1.87;;;25.70;22.90;;;;;;2258684;61;20365;-61
2022/04/26 12:03:07;0.00;0.00;0.62;0.00;0.00;0.62;2.67;2.33;;;25.70;22.90;;;;;;2259963;61;20400;-62
2022/04/26 12:05:58;0.00;0.00;0.62;0.00;0.00;0.62;2.53;2.20;;;25.70;22.90;;;;;;2259661;61;20380;-62
2022/04/26 12:08:44;0.00;0.00;0.62;0.00;0.00;0.62;2.30;2.10;;;25.70;22.90;;;;;;2259009;61;20463;-62
2022/04/26 12:11:32;0.00;0.00;0.62;0.00;0.00;0.62;2.50;2.30;;;25.70;22.90;;;;;;2259754;61;20434;-67
2022/04/26 12:14:21;0.00;0.00;0.62;0.00;0.00;0.62;2.50;2.03;;;25.70;22.90;;;;;;2258868;61;20380;-61
2022/04/26 12:17:18;0.00;0.00;0.62;0.00;0.00;0.62;2.60;2.40;;;25.70;22.90;;;;;;2259812;61;20369;-58
2022/04/26 12:20:11;0.00;0.00;0.62;0.00;0.00;0.62;2.50;2.30;;;25.70;22.90;;;;;;2258958;61;20419;-61
2022/04/26 12:22:57;0.00;0.00;0.62;0.00;0.00;0.62;2.43;2.10;;;25.80;22.90;;;;;;2258824;61;20516;-61
2022/04/26 12:25:52;0.00;0.00;0.62;0.00;0.00;0.62;2.40;2.20;;;25.80;22.90;;;;;;2259775;61;20392;-61
2022/04/26 12:28:46;0.00;0.00;0.62;0.00;0.00;0.62;2.50;2.30;;;25.80;23.00;;;;;;2258991;61;20369;-61
2022/04/26 12:31:31;0.00;0.00;0.62;0.00;0.00;0.62;2.60;2.27;;;25.80;23.00;;;;;;2259664;61;20389;-68
2022/04/26 12:34:18;0.00;0.00;0.62;0.00;0.00;0.62;2.53;2.03;;;25.80;22.90;;;;;;2260540;61;20361;-62
2022/04/26 12:37:08;0.00;0.00;0.62;0.00;0.00;0.62;2.80;2.20;;;25.80;22.90;;;;;;2259388;61;20452;-58
2022/04/26 12:39:58;0.00;0.00;0.62;0.00;0.00;0.62;2.90;2.10;;;25.80;22.90;;;;;;2260201;61;20369;-60
2022/04/26 12:42:46;0.00;0.00;0.62;0.00;0.00;0.62;2.20;1.90;;;25.80;22.90;;;;;;2260144;61;20380;-64
2022/04/26 12:45:30;0.00;0.00;0.62;0.00;0.00;0.62;2.20;1.90;;;25.80;22.90;;;;;;2260203;61;20390;-61
2022/04/26 12:51:21;0.00;0.00;0.62;0.00;0.00;0.62;1.93;1.67;;;25.90;22.90;;;;;;2259126;61;20385;-64
2022/04/26 12:54:12;0.00;0.00;0.62;0.00;0.00;0.62;2.37;2.13;;;25.90;22.90;;;;;;2260250;61;20361;-59
2022/04/26 12:56:59;0.00;0.00;0.62;0.00;0.00;0.62;2.00;1.80;;;25.90;22.90;;;;;;2260360;61;20411;-59
2022/04/26 12:59:44;0.00;0.00;0.62;0.00;0.00;0.62;2.13;1.70;;;25.90;22.90;;;;;;2259278;61;20411;-62
2022/04/26 13:02:28;0.00;0.00;0.62;0.00;0.00;0.62;2.37;2.10;;;26.00;22.80;;;;;;2260306;61;20396;-61
2022/04/26 13:05:13;0.00;0.00;0.62;0.00;0.00;0.62;2.33;1.67;;;26.00;22.80;;;;;;2259651;61;20435;-61
2022/04/26 13:07:58;0.00;0.00;0.62;0.00;0.00;0.62;2.27;2.00;;;26.00;22.80;;;;;;2259953;61;20838;-62
2022/04/26 13:10:44;0.00;0.00;0.62;0.00;0.00;0.62;2.53;1.93;;;26.00;22.80;;;;;;2260069;61;20456;-61
2022/04/26 13:13:29;0.00;0.00;0.62;0.00;0.00;0.62;2.30;1.60;;;26.00;22.80;;;;;;2259492;61;20535;-62
2022/04/26 13:16:13;0.00;0.00;0.62;0.00;0.00;0.62;2.23;2.03;;;26.00;22.80;;;;;;2260387;61;20408;-62
2022/04/26 13:18:58;0.00;0.00;0.62;0.00;0.00;0.62;2.07;1.70;;;26.00;22.80;;;;;;2260170;61;20536;-61
2022/04/26 13:21:44;0.00;0.00;0.62;0.00;0.00;0.62;2.07;1.87;;;26.00;22.80;;;;;;2259374;61;20431;-60
2022/04/26 13:24:29;0.00;0.00;0.62;0.00;0.00;0.62;2.00;1.77;;;26.00;22.80;;;;;;2260129;61;20373;-61
2022/04/26 13:27:16;0.00;0.00;0.62;0.00;0.00;0.62;2.77;2.20;;;26.10;22.80;;;;;;2260390;61;20365;-62
2022/04/26 13:30:02;0.00;0.00;0.62;0.00;0.00;0.62;2.20;2.00;;;26.10;22.80;;;;;;2259687;61;20392;-68
2022/04/26 13:32:48;0.00;0.00;0.62;0.00;0.00;0.62;1.70;1.40;;;26.10;22.90;;;;;;2260111;61;20473;-67
2022/04/26 13:35:33;0.00;0.00;0.62;0.00;0.00;0.62;2.10;1.83;;;26.10;22.80;;;;;;2259136;61;20364;-62
2022/04/26 13:38:19;0.00;0.00;0.62;0.00;0.00;0.62;1.97;1.67;;;26.20;22.90;;;;;;2259831;61;20788;-63
2022/04/26 13:41:04;0.00;0.00;0.62;0.00;0.00;0.62;2.00;1.80;;;26.20;22.90;;;;;;2260331;61;20822;-62
2022/04/26 13:43:50;0.00;0.00;0.62;0.00;0.00;0.62;2.13;1.83;;;26.20;22.90;;;;;;2259297;61;20431;-60
2022/04/26 13:46:36;0.00;0.00;0.62;0.00;0.00;0.62;1.80;1.50;;;26.20;22.90;;;;;;2260154;61;20385;-61
2022/04/26 13:49:20;0.00;0.00;0.62;0.00;0.00;0.62;2.10;1.87;;;26.20;22.90;;;;;;2259817;61;20419;-59
2022/04/26 13:52:06;0.00;0.00;0.62;0.00;0.00;0.62;1.90;1.70;;;26.20;22.90;;;;;;2259534;61;20388;-60
2022/04/26 13:54:51;0.00;0.00;0.62;0.00;0.00;0.62;2.00;1.77;;;26.20;22.90;;;;;;2260035;61;20851;-61
2022/04/26 13:57:38;0.00;0.00;0.62;0.00;0.00;0.62;2.13;1.70;;;26.20;22.90;;;;;;2259350;61;20449;-61
2022/04/26 14:00:24;0.00;0.00;0.62;0.00;0.00;0.62;2.03;1.80;;;26.30;22.90;;;;;;2260355;61;20376;-60
2022/04/26 14:03:08;0.00;0.00;0.62;0.00;0.00;0.62;2.00;1.70;;;26.30;22.90;;;;;;2260369;61;20455;-61
2022/04/26 14:05:55;0.00;0.00;0.62;0.00;0.00;0.62;2.07;1.63;;;26.30;22.90;;;;;;2258893;61;20388;-61
2022/04/26 14:08:40;0.00;0.00;0.62;0.00;0.00;0.62;2.00;1.57;;;26.30;22.90;;;;;;2259700;61;20364;-61
2022/04/26 14:11:25;0.00;0.00;0.62;0.00;0.00;0.62;1.80;1.37;;;26.30;22.90;;;;;;2259514;61;20426;-61
2022/04/26 14:23:21;0.00;0.00;0.62;0.00;0.00;0.62;1.80;1.40;;;26.30;22.90;;;;;;2260006;61;20384;-62
2022/04/26 14:26:06;0.00;0.00;0.62;0.00;0.00;0.62;1.97;1.50;;;26.30;22.90;;;;;;2260018;61;20469;-60
2022/04/26 14:28:51;0.00;0.00;0.62;0.00;0.00;0.62;1.80;1.57;;;26.30;22.90;;;;;;2258749;61;20895;-61
2022/04/26 14:31:36;0.00;0.00;0.62;0.00;0.00;0.62;2.70;2.03;;;26.30;22.90;;;;;;2260034;61;20369;-61
2022/04/26 14:34:22;0.00;0.00;0.62;0.00;0.00;0.62;1.63;1.30;;;26.30;22.90;;;;;;2259397;61;20368;-61
2022/04/26 14:37:06;0.00;0.00;0.62;0.00;0.00;0.62;1.63;1.43;;;26.30;22.90;;;;;;2260051;61;20423;-61
2022/04/26 14:39:52;0.00;0.00;0.62;0.00;0.00;0.62;1.57;1.20;;;26.30;22.90;;;;;;2260746;61;20388;-64
2022/04/26 14:42:38;0.00;0.00;0.62;0.00;0.00;0.62;1.73;1.63;;;26.30;22.90;;;;;;2260002;61;20388;-63
2022/04/26 14:45:22;0.00;0.00;0.62;0.00;0.00;0.62;1.50;1.20;;;26.30;22.90;;;;;;2260664;61;20384;-63
2022/04/26 14:48:07;0.00;0.00;0.62;0.00;0.00;0.62;2.13;1.50;;;26.30;22.90;;;;;;2260794;61;20439;-62
2022/04/26 14:50:53;0.00;0.00;0.62;0.00;0.00;0.62;1.60;1.20;;;26.30;22.90;;;;;;2260248;61;20373;-60
2022/04/26 14:53:38;0.00;0.00;0.62;0.00;0.00;0.62;1.80;1.57;;;26.40;23.00;;;;;;2261236;61;20393;-63
2022/04/26 14:56:23;0.00;0.00;0.62;0.00;0.00;0.62;1.60;1.13;;;26.30;23.00;;;;;;2260446;61;20365;-63
2022/04/26 14:59:07;0.00;0.00;0.62;0.00;0.00;0.62;1.70;1.30;;;26.30;22.90;;;;;;2260418;61;20360;-63
2022/04/26 15:01:53;0.00;0.00;0.62;0.00;0.00;0.62;1.87;1.37;;;26.40;23.00;;;;;;2260923;61;20415;-60
2022/04/26 15:04:39;0.00;0.00;0.62;0.00;0.00;0.62;1.60;1.30;;;26.30;22.90;;;;;;2259022;61;20832;-55
2022/04/26 15:07:24;0.00;0.00;0.62;0.00;0.00;0.62;2.10;1.60;;;26.40;23.00;;;;;;2260130;61;20357;-56